NCAR-RAP Real-Time Weather Data

Output produced by METARs form (17 October 2017  13:27 UTC)
found at http://weather.rap.ucar.edu/surface/
 
Conditions at: KIND observed 17 October 2017  12:54 UTC
Temperature: 7.8°C (46°F)
Dewpoint: 3.9°C (39°F) [RH = 76%]
Pressure (altimeter): 30.36 inches Hg (1028.2 mb)
[Sea-level pressure: 1028.1 mb]
Winds: from the SW (220 degrees) at 3 MPH (3 knots; 1.6 m/s)
Visibility: 10 or more miles (16+ km)
Ceiling: at least 12,000 feet AGL
Clouds: scattered clouds at 30000 feet AGL
Present Weather: no significant weather observed at this time
KIND 171254Z 22003KT 10SM SCT300 08/04 A3036 RMK AO2 SLP281 T00780039